Time;durP1;ratioP1;P1;durP2;ratioP2;P2;SDS_P1;SDS_P2;PMS_P1;PMS_P2;Temp;Humidity;BMP_temperature;BMP_pressure;BME280_temperature;BME280_humidity;BME280_pressure;Samples;Min_cycle;Max_cycle;Signal;HPM_P1;HPM_P2
2021/11/25 00:00:49;;;;;;;5.72;5.03;;;;;;;5.69;72.71;100804.63;4963566;28;20057;-83
2021/11/25 00:03:22;;;;;;;4.30;3.45;;;;;;;5.68;72.99;100800.28;4974512;28;20050;-82
2021/11/25 00:05:49;;;;;;;4.57;3.22;;;;;;;5.69;72.94;100789.91;4988058;28;20054;-82
2021/11/25 00:08:17;;;;;;;6.10;4.20;;;;;;;5.69;73.05;100789.06;4989595;28;20046;-85
2021/11/25 00:10:51;;;;;;;7.97;4.03;;;;;;;5.66;73.00;100784.69;4991557;28;20030;-88
2021/11/25 00:13:20;;;;;;;4.90;4.30;;;;;;;5.67;73.25;100775.16;4992178;28;20492;-81
2021/11/25 00:15:50;;;;;;;6.88;5.00;;;;;;;5.64;73.17;100770.81;4979755;28;20555;-85
2021/11/25 00:18:18;;;;;;;4.82;4.32;;;;;;;5.63;73.38;100766.44;4958683;28;20074;-79
2021/11/25 00:20:46;;;;;;;7.07;4.50;;;;;;;5.63;73.80;100766.44;4939375;28;20124;-82
2021/11/25 00:23:12;;;;;;;7.95;4.88;;;;;;;5.61;73.59;100760.38;4973838;28;20074;-83
2021/11/25 00:25:42;;;;;;;6.13;3.90;;;;;;;5.60;73.64;100759.50;4959318;28;20302;-81
2021/11/25 00:28:19;;;;;;;7.70;4.55;;;;;;;5.58;73.91;100766.41;4976372;28;20047;-79
2021/11/25 00:30:46;;;;;;;7.63;5.57;;;;;;;5.56;74.06;100757.72;4976491;28;20059;-85
2021/11/25 00:33:13;;;;;;;6.40;4.53;;;;;;;5.53;73.83;100757.69;4959669;28;20050;-78
2021/11/25 00:35:43;;;;;;;5.55;4.15;;;;;;;5.51;73.75;100754.19;4965941;28;20133;-83
2021/11/25 00:38:09;;;;;;;5.45;4.55;;;;;;;5.51;74.10;100746.38;4960247;28;20074;-83
2021/11/25 00:40:36;;;;;;;5.07;4.57;;;;;;;5.49;74.05;100740.31;4969669;28;20051;-85
2021/11/25 00:43:03;;;;;;;6.45;4.45;;;;;;;5.49;73.91;100732.53;4994917;28;20049;-85
2021/11/25 00:45:30;;;;;;;5.28;3.92;;;;;;;5.49;74.15;100732.53;4952597;28;20046;-86
2021/11/25 00:47:56;;;;;;;5.28;3.83;;;;;;;5.50;74.15;100730.81;4975207;28;20050;-80
2021/11/25 00:50:23;;;;;;;6.55;3.88;;;;;;;5.49;74.27;100718.66;4965357;28;20042;-81
2021/11/25 00:52:50;;;;;;;4.35;3.95;;;;;;;5.50;74.52;100720.41;4967661;28;20422;-81
2021/11/25 00:55:19;;;;;;;5.25;4.07;;;;;;;5.51;74.64;100716.97;4953951;28;20064;-83
2021/11/25 00:57:46;;;;;;;5.63;4.60;;;;;;;5.52;74.67;100713.53;4962939;28;20061;-82
2021/11/25 01:00:17;;;;;;;5.60;4.05;;;;;;;5.52;74.91;100710.94;4969119;28;20035;-79
2021/11/25 01:02:47;;;;;;;10.02;3.75;;;;;;;5.49;74.81;100708.28;4998472;28;20129;-81
2021/11/25 01:05:15;;;;;;;7.00;4.40;;;;;;;5.47;74.84;100700.47;5009136;28;20516;-84
2021/11/25 01:07:49;;;;;;;5.05;3.78;;;;;;;5.45;74.90;100692.66;5007969;28;20609;-84
2021/11/25 01:10:42;;;;;;;3.70;3.40;;;;;;;5.44;74.89;100696.13;4987798;28;20038;-87
2021/11/25 01:13:19;;;;;;;5.35;3.50;;;;;;;5.44;75.30;100687.47;4983684;28;20057;-83
2021/11/25 01:15:46;;;;;;;4.03;3.58;;;;;;;5.46;75.31;100686.63;4977301;28;20769;-83
2021/11/25 01:18:21;;;;;;;4.75;4.25;;;;;;;5.46;75.25;100688.34;4994279;28;20056;-80
2021/11/25 01:20:51;;;;;;;6.15;3.50;;;;;;;5.45;75.27;100690.06;4968542;28;20551;-80
2021/11/25 01:23:29;;;;;;;4.70;3.60;;;;;;;5.45;75.15;100694.41;4987199;28;20050;-82
2021/11/25 01:26:04;;;;;;;6.47;3.92;;;;;;;5.45;75.40;100694.41;4962037;28;20467;-79
2021/11/25 01:28:34;;;;;;;4.68;3.92;;;;;;;5.46;75.29;100690.94;4967262;28;20077;-84
2021/11/25 01:31:04;;;;;;;4.05;3.50;;;;;;;5.45;75.61;100691.81;4975287;28;20484;-82
2021/11/25 01:33:32;;;;;;;3.40;2.97;;;;;;;5.43;75.61;100681.38;4989479;28;20060;-84
2021/11/25 01:36:01;;;;;;;5.22;3.25;;;;;;;5.40;75.93;100676.16;4976580;28;20052;-81
2021/11/25 01:38:29;;;;;;;5.30;4.38;;;;;;;5.40;76.05;100672.72;4976189;28;20058;-78
2021/11/25 01:40:56;;;;;;;6.20;3.80;;;;;;;5.40;75.77;100670.97;4951761;28;20378;-86
2021/11/25 01:43:25;;;;;;;4.55;3.58;;;;;;;5.38;75.73;100664.00;4991029;28;20064;-79
2021/11/25 01:46:02;;;;;;;5.50;3.53;;;;;;;5.36;75.98;100670.91;4959633;28;20135;-81
2021/11/25 01:48:29;;;;;;;7.35;4.00;;;;;;;5.35;76.19;100662.25;4976165;28;20046;-81
2021/11/25 01:50:55;;;;;;;5.30;4.47;;;;;;;5.37;76.35;100660.56;4967771;28;20057;-84
2021/11/25 01:53:22;;;;;;;6.03;4.22;;;;;;;5.35;76.33;100654.47;4973109;28;20128;-78
2021/11/25 01:55:51;;;;;;;8.35;4.10;;;;;;;5.32;76.63;100649.25;4970808;28;20054;-85
2021/11/25 01:58:18;;;;;;;7.07;3.85;;;;;;;5.30;76.52;100656.13;4968852;28;20097;-80
2021/11/25 02:00:56;;;;;;;5.97;4.20;;;;;;;5.28;77.29;100642.28;4968261;28;20053;-85
2021/11/25 02:03:26;;;;;;;4.68;4.18;;;;;;;5.27;76.94;100646.56;4978595;28;20366;-84
2021/11/25 02:06:24;;;;;;;4.97;4.28;;;;;;;5.25;76.95;100640.50;4967810;28;20070;-84
2021/11/25 02:08:51;;;;;;;4.60;3.67;;;;;;;5.23;77.22;100643.94;4952379;28;21303;-80
2021/11/25 02:11:18;;;;;;;4.75;4.40;;;;;;;5.23;77.10;100642.22;4971374;28;20042;-81
2021/11/25 02:13:44;;;;;;;7.55;4.10;;;;;;;5.23;77.27;100629.22;4975601;28;20050;-85
2021/11/25 02:16:13;;;;;;;6.15;3.83;;;;;;;5.22;77.51;100632.66;4950099;28;20487;-82
2021/11/25 02:18:42;;;;;;;4.57;3.47;;;;;;;5.22;77.20;100637.00;4961905;28;20046;-84
2021/11/25 02:21:09;;;;;;;6.20;4.53;;;;;;;5.21;77.26;100630.91;4954831;28;20058;-82
2021/11/25 02:23:35;;;;;;;4.88;3.47;;;;;;;5.21;77.22;100619.69;4951736;28;20141;-84
2021/11/25 02:26:05;;;;;;;6.57;3.53;;;;;;;5.21;77.22;100614.50;4982563;28;20042;-80
2021/11/25 02:28:37;;;;;;;5.53;4.25;;;;;;;5.21;77.08;100612.75;4985417;28;20053;-84
2021/11/25 02:31:06;;;;;;;6.20;4.10;;;;;;;5.21;77.17;100610.16;5000031;28;20050;-84
2021/11/25 02:33:39;;;;;;;5.97;4.32;;;;;;;5.21;77.25;100606.72;4970583;28;20668;-83
2021/11/25 02:36:19;;;;;;;5.70;3.60;;;;;;;5.22;77.13;100609.31;4995653;28;20043;-85
2021/11/25 02:39:01;;;;;;;4.05;3.47;;;;;;;5.23;77.04;100607.59;4972130;28;20042;-78
2021/11/25 02:41:30;;;;;;;4.47;3.70;;;;;;;5.23;76.88;100599.81;4968867;28;20872;-78
2021/11/25 02:43:59;;;;;;;5.80;3.67;;;;;;;5.23;76.65;100597.22;4984438;28;20046;-80
2021/11/25 02:46:26;;;;;;;4.93;3.83;;;;;;;5.24;76.66;100594.66;4974022;28;20061;-78
2021/11/25 02:48:58;;;;;;;6.18;4.15;;;;;;;5.24;76.99;100606.72;4983683;28;20128;-81
2021/11/25 02:51:28;;;;;;;5.90;4.30;;;;;;;5.23;77.44;100598.09;4983920;28;20053;-84
2021/11/25 02:53:55;;;;;;;6.15;5.50;;;;;;;5.24;77.61;100593.75;4963040;28;20356;-80
2021/11/25 02:56:26;;;;;;;5.18;4.15;;;;;;;5.25;77.63;100598.09;4983358;28;20101;-81
2021/11/25 02:59:03;;;;;;;5.63;3.92;;;;;;;5.24;77.99;100593.75;4996896;28;20069;-86
2021/11/25 03:01:36;;;;;;;5.75;3.97;;;;;;;5.21;78.02;100593.72;4991790;28;20058;-82
2021/11/25 03:04:08;;;;;;;4.90;3.60;;;;;;;5.18;78.31;100589.38;4985147;28;20042;-81
2021/11/25 03:06:36;;;;;;;4.68;3.90;;;;;;;5.16;78.37;100585.88;4984398;28;20432;-78
2021/11/25 03:09:05;;;;;;;5.18;3.75;;;;;;;5.14;78.83;100582.41;4988300;28;20053;-79
2021/11/25 03:11:32;;;;;;;5.47;4.25;;;;;;;5.14;79.02;100579.81;4988812;28;20030;-81
2021/11/25 03:14:04;;;;;;;6.40;4.75;;;;;;;5.14;79.03;100569.44;4989867;28;20042;-79
2021/11/25 03:16:31;;;;;;;6.28;3.60;;;;;;;5.14;79.55;100574.63;4986879;28;20057;-80
2021/11/25 03:19:05;;;;;;;7.72;4.22;;;;;;;5.12;79.70;100573.72;4982594;28;20049;-81
2021/11/25 03:21:32;;;;;;;4.85;4.38;;;;;;;5.12;80.11;100572.03;5007420;28;20042;-79
2021/11/25 03:24:06;;;;;;;5.85;4.65;;;;;;;5.13;79.99;100570.28;4986369;28;20445;-81
2021/11/25 03:26:41;;;;;;;4.30;3.90;;;;;;;5.09;80.53;100573.69;4972752;28;20049;-84
2021/11/25 03:29:07;;;;;;;6.90;4.70;;;;;;;5.07;80.68;100570.19;4989017;28;20076;-79
2021/11/25 03:31:34;;;;;;;4.90;3.95;;;;;;;5.07;80.95;100570.19;4979754;28;21435;-85
2021/11/25 03:34:03;;;;;;;6.03;4.20;;;;;;;5.03;81.36;100558.03;4986201;28;21195;-81
2021/11/25 03:36:29;;;;;;;5.13;4.32;;;;;;;5.03;81.56;100558.03;5004977;28;20449;-79
2021/11/25 03:39:05;;;;;;;5.97;4.20;;;;;;;5.01;81.86;100549.41;4974277;28;20107;-79
2021/11/25 03:41:32;;;;;;;6.75;4.78;;;;;;;5.00;81.88;100548.50;4990175;28;20476;-81
2021/11/25 03:43:59;;;;;;;5.00;4.50;;;;;;;4.99;81.54;100549.34;4982924;28;20044;-82
2021/11/25 03:46:25;;;;;;;5.00;4.18;;;;;;;4.98;81.89;100555.41;4990812;28;21022;-83
2021/11/25 03:49:08;;;;;;;5.05;4.20;;;;;;;4.97;82.43;100558.84;5004019;28;20045;-78
2021/11/25 03:51:37;;;;;;;7.47;4.78;;;;;;;4.95;82.36;100547.56;4987983;28;20519;-81
2021/11/25 03:54:03;;;;;;;5.03;3.45;;;;;;;4.94;82.75;100545.81;4983600;28;20144;-81
2021/11/25 03:56:30;;;;;;;6.60;4.90;;;;;;;4.93;83.00;100536.31;4971238;28;20139;-82
2021/11/25 03:59:04;;;;;;;4.65;3.67;;;;;;;4.91;83.38;100533.69;4986167;28;20058;-85
2021/11/25 04:01:33;;;;;;;5.03;3.58;;;;;;;4.91;83.05;100536.28;4976591;28;20049;-79
2021/11/25 04:04:00;;;;;;;5.53;4.05;;;;;;;4.93;82.88;100538.91;4973781;28;20073;-80
2021/11/25 04:06:26;;;;;;;7.38;4.43;;;;;;;4.95;82.62;100535.50;4982917;28;20041;-78
2021/11/25 04:08:53;;;;;;;6.50;3.75;;;;;;;4.95;82.00;100532.91;4985886;28;20774;-84
2021/11/25 04:11:19;;;;;;;4.13;3.30;;;;;;;4.96;82.44;100538.94;5002907;28;20044;-78
2021/11/25 04:13:46;;;;;;;6.60;4.20;;;;;;;4.93;81.81;100533.72;4970848;28;20057;-85
2021/11/25 04:16:21;;;;;;;5.60;3.50;;;;;;;4.93;81.27;100539.78;4988875;28;20042;-79
2021/11/25 04:18:48;;;;;;;6.05;4.05;;;;;;;4.91;81.45;100531.09;4998179;28;20065;-82
2021/11/25 04:21:14;;;;;;;3.55;3.25;;;;;;;4.89;81.55;100522.44;4969518;28;20046;-83
2021/11/25 04:23:41;;;;;;;6.65;3.85;;;;;;;4.89;81.28;100519.84;4968398;28;20069;-85
2021/11/25 04:26:08;;;;;;;6.55;4.38;;;;;;;4.89;81.07;100519.84;4986881;28;20046;-78
2021/11/25 04:28:43;;;;;;;6.55;3.78;;;;;;;4.85;80.68;100518.06;4987421;28;20580;-82
2021/11/25 04:37:01;;;;;;;4.90;3.67;;;;;;;4.82;81.01;100509.38;4963620;28;20061;-83
2021/11/25 04:39:28;;;;;;;7.60;4.18;;;;;;;4.80;81.19;100518.00;4964573;28;20088;-80
2021/11/25 04:41:57;;;;;;;6.68;4.13;;;;;;;4.78;81.25;100514.53;4974107;28;20497;-84
2021/11/25 04:44:36;;;;;;;5.90;3.85;;;;;;;4.79;81.55;100515.41;4986574;28;20238;-82
2021/11/25 04:47:03;;;;;;;6.30;3.97;;;;;;;4.77;81.39;100505.00;4994251;28;20737;-85
2021/11/25 04:49:30;;;;;;;5.95;4.85;;;;;;;4.77;81.49;100501.53;4989599;28;20077;-80
2021/11/25 04:51:58;;;;;;;5.82;4.78;;;;;;;4.76;81.16;100503.25;4970748;28;20184;-82
2021/11/25 04:54:24;;;;;;;5.97;4.90;;;;;;;4.74;81.57;100510.13;4983006;28;20049;-79
2021/11/25 04:56:52;;;;;;;7.40;5.40;;;;;;;4.74;81.49;100501.50;4988416;28;20053;-86
2021/11/25 04:59:19;;;;;;;8.20;5.43;;;;;;;4.74;81.42;100498.91;4975345;28;20053;-80
2021/11/25 05:01:48;;;;;;;9.32;5.22;;;;;;;4.72;81.22;100495.41;4984933;28;20148;-82
2021/11/25 05:04:15;;;;;;;6.20;5.03;;;;;;;4.68;81.47;100502.31;4972201;28;20540;-81
2021/11/25 05:06:41;;;;;;;7.70;4.30;;;;;;;4.70;81.62;100499.72;4982137;28;20157;-83
2021/11/25 05:09:08;;;;;;;7.97;4.85;;;;;;;4.70;81.17;100489.34;4984208;28;20712;-81
2021/11/25 05:11:35;;;;;;;6.05;3.72;;;;;;;4.70;80.82;100492.81;5006291;28;20120;-80
2021/11/25 05:14:01;;;;;;;6.10;5.20;;;;;;;4.71;80.77;100491.09;4967533;28;20077;-85
2021/11/25 05:16:28;;;;;;;5.70;4.55;;;;;;;4.70;80.71;100486.75;4989084;28;20480;-81
2021/11/25 05:18:57;;;;;;;8.02;4.57;;;;;;;4.71;80.79;100486.78;4978212;28;20049;-81
2021/11/25 05:21:24;;;;;;;6.50;4.47;;;;;;;4.69;79.68;100488.47;4980066;28;20049;-78
2021/11/25 05:23:50;;;;;;;8.30;4.45;;;;;;;4.71;79.47;100488.50;4981305;28;20064;-82
2021/11/25 05:26:18;;;;;;;6.72;5.10;;;;;;;4.72;79.54;100487.63;5000938;28;20134;-82
2021/11/25 05:28:44;;;;;;;7.20;4.70;;;;;;;4.74;79.27;100481.63;4982282;28;20061;-77
2021/11/25 05:31:11;;;;;;;5.93;4.78;;;;;;;4.75;79.14;100479.91;4968304;28;20050;-81
2021/11/25 05:33:38;;;;;;;7.03;4.95;;;;;;;4.74;79.14;100489.38;4981996;28;20046;-80
2021/11/25 05:36:14;;;;;;;6.53;4.38;;;;;;;4.74;79.22;100483.34;4987469;28;20057;-80
2021/11/25 05:38:41;;;;;;;6.88;5.18;;;;;;;4.73;79.04;100487.69;4982310;28;20046;-89
2021/11/25 05:41:08;;;;;;;9.30;5.00;;;;;;;4.74;78.33;100488.53;4970063;28;20057;-80
2021/11/25 05:43:41;;;;;;;11.10;4.80;;;;;;;4.70;78.85;100472.06;4968567;28;21205;-79
2021/11/25 05:46:07;;;;;;;6.68;4.28;;;;;;;4.71;78.71;100470.34;4981773;28;20145;-85
2021/11/25 05:48:34;;;;;;;6.75;4.75;;;;;;;4.71;78.61;100466.03;4984608;28;20476;-81
2021/11/25 05:51:00;;;;;;;8.23;5.05;;;;;;;4.70;78.88;100455.66;4979057;28;20592;-84
2021/11/25 05:53:27;;;;;;;8.93;5.10;;;;;;;4.68;78.91;100450.44;4985204;28;20112;-79
2021/11/25 05:55:53;;;;;;;11.10;5.70;;;;;;;4.68;78.08;100452.16;4986208;28;20073;-85
2021/11/25 05:58:20;;;;;;;8.13;5.15;;;;;;;4.67;78.50;100445.22;4966192;28;20048;-79
2021/11/25 06:00:47;;;;;;;6.53;5.03;;;;;;;4.69;78.58;100440.94;4964179;28;20054;-83
2021/11/25 06:03:14;;;;;;;5.97;4.38;;;;;;;4.69;78.44;100438.34;4966069;28;20141;-81
2021/11/25 06:05:40;;;;;;;5.90;5.00;;;;;;;4.67;78.43;100440.03;4972196;28;20062;-84
2021/11/25 06:08:08;;;;;;;6.68;4.90;;;;;;;4.64;78.69;100441.75;4974130;28;20074;-78
2021/11/25 06:10:34;;;;;;;6.68;5.55;;;;;;;4.64;78.46;100438.28;4967685;28;20162;-82
2021/11/25 06:13:02;;;;;;;7.85;5.30;;;;;;;4.63;78.50;100434.81;4970937;28;21524;-83
2021/11/25 06:15:28;;;;;;;6.25;5.38;;;;;;;4.62;78.77;100437.41;4969743;28;20042;-83
2021/11/25 06:17:55;;;;;;;6.10;4.95;;;;;;;4.66;78.82;100446.09;4986871;28;20052;-82
2021/11/25 06:20:23;;;;;;;12.05;5.47;;;;;;;4.67;78.59;100447.81;4977762;28;20050;-86
2021/11/25 06:22:53;;;;;;;9.45;5.75;;;;;;;4.66;78.63;100444.34;4970627;28;20386;-79
2021/11/25 06:25:23;;;;;;;12.55;6.05;;;;;;;4.63;78.50;100445.19;4988780;28;20054;-81
2021/11/25 06:27:50;;;;;;;10.30;6.55;;;;;;;4.63;78.77;100441.75;4986999;28;20041;-84
2021/11/25 06:30:17;;;;;;;8.57;5.60;;;;;;;4.62;79.03;100440.84;4986730;28;20045;-82
2021/11/25 06:32:48;;;;;;;7.22;5.88;;;;;;;4.63;79.11;100440.00;4998990;28;20060;-82
2021/11/25 06:35:19;;;;;;;6.93;5.32;;;;;;;4.62;79.26;100435.66;4982620;28;20112;-83
2021/11/25 06:37:55;;;;;;;9.25;5.25;;;;;;;4.65;79.33;100445.19;4992599;28;20085;-86
2021/11/25 06:40:28;;;;;;;11.30;5.35;;;;;;;4.64;79.24;100446.94;4980357;28;21467;-82
2021/11/25 06:42:57;;;;;;;9.27;5.30;;;;;;;4.63;79.17;100437.41;4974649;28;20549;-79
2021/11/25 06:45:25;;;;;;;8.13;5.68;;;;;;;4.62;78.87;100437.41;4980199;28;20760;-78
2021/11/25 06:48:08;;;;;;;8.48;5.95;;;;;;;4.60;78.79;100442.56;4954304;28;20290;-81
2021/11/25 06:50:38;;;;;;;9.07;5.75;;;;;;;4.60;78.69;100437.38;4979969;28;20056;-82
2021/11/25 06:53:05;;;;;;;8.98;7.38;;;;;;;4.61;78.21;100433.91;4941723;28;20145;-85
2021/11/25 06:55:32;;;;;;;8.65;6.07;;;;;;;4.61;78.39;100433.91;4968126;28;20799;-82
2021/11/25 06:57:58;;;;;;;10.10;6.38;;;;;;;4.61;78.33;100441.69;4967327;28;20408;-81
2021/11/25 07:00:27;;;;;;;25.27;9.05;;;;;;;4.59;77.74;100445.16;4966800;28;20057;-80
2021/11/25 07:02:55;;;;;;;8.95;6.03;;;;;;;4.58;78.00;100446.00;4950264;28;20054;-79
2021/11/25 07:05:27;;;;;;;8.27;6.43;;;;;;;4.54;78.13;100437.31;4948275;28;20042;-83
2021/11/25 07:07:54;;;;;;;8.07;6.72;;;;;;;4.54;77.72;100437.31;4952733;28;20078;-85
2021/11/25 07:10:23;;;;;;;13.65;6.15;;;;;;;4.52;77.60;100430.38;4963494;28;20050;-81
2021/11/25 07:12:50;;;;;;;9.00;6.43;;;;;;;4.48;77.49;100421.66;4964728;28;20758;-83
2021/11/25 07:15:20;;;;;;;9.23;6.57;;;;;;;4.43;78.17;100426.81;4952172;28;20050;-86
2021/11/25 07:17:47;;;;;;;10.80;7.22;;;;;;;4.40;77.95;100425.91;4985671;28;20046;-85
2021/11/25 07:20:15;;;;;;;10.88;7.00;;;;;;;4.36;78.12;100424.97;4955065;28;20046;-81
2021/11/25 07:22:42;;;;;;;9.43;7.32;;;;;;;4.33;78.33;100424.06;4983578;28;20038;-85
2021/11/25 07:25:12;;;;;;;14.85;7.22;;;;;;;4.32;78.93;100435.31;4970012;28;20652;-83
2021/11/25 07:27:40;;;;;;;12.52;8.82;;;;;;;4.29;79.29;100425.78;4987628;28;20026;-80
2021/11/25 07:30:13;;;;;;;12.23;8.40;;;;;;;4.27;79.21;100422.28;4965922;28;20145;-83
2021/11/25 07:32:43;;;;;;;11.35;8.80;;;;;;;4.27;79.97;100427.47;4956784;28;20042;-83
2021/11/25 07:35:11;;;;;;;14.20;8.65;;;;;;;4.23;79.84;100415.31;4950551;28;20582;-85
2021/11/25 07:37:38;;;;;;;13.98;8.65;;;;;;;4.20;80.11;100410.06;4974392;28;20750;-85
2021/11/25 07:40:08;;;;;;;10.40;7.55;;;;;;;4.16;80.83;100406.59;4968590;28;20152;-81
2021/11/25 07:42:35;;;;;;;13.75;9.02;;;;;;;4.11;80.96;100403.94;4972018;28;20051;-83
2021/11/25 07:45:03;;;;;;;15.27;9.43;;;;;;;4.13;81.40;100401.34;4967162;28;20054;-82
2021/11/25 07:47:37;;;;;;;13.57;9.32;;;;;;;4.12;81.46;100400.50;4997649;28;20056;-82
2021/11/25 07:50:13;;;;;;;12.02;8.73;;;;;;;4.18;81.85;100406.63;4956451;28;20515;-82
2021/11/25 07:52:40;;;;;;;16.15;9.88;;;;;;;4.24;81.71;100407.56;4961525;28;20056;-86
2021/11/25 07:55:14;;;;;;;14.90;10.00;;;;;;;4.28;81.70;100406.75;4996931;28;20042;-85
2021/11/25 07:57:42;;;;;;;17.35;9.98;;;;;;;4.32;81.25;100412.84;4971309;28;20077;-85
2021/11/25 08:00:10;;;;;;;16.15;10.85;;;;;;;4.41;81.30;100412.09;4997119;28;20046;-82
2021/11/25 08:02:37;;;;;;;15.98;10.75;;;;;;;4.43;81.24;100395.72;4986345;28;20128;-79
2021/11/25 08:05:04;;;;;;;16.30;11.35;;;;;;;4.46;81.05;100393.16;4988128;28;20045;-77
2021/11/25 08:07:31;;;;;;;16.38;11.30;;;;;;;4.50;80.85;100382.81;4967747;28;21412;-86
2021/11/25 08:09:59;;;;;;;19.95;11.75;;;;;;;4.50;81.24;100380.22;4967236;28;20062;-79
2021/11/25 08:12:25;;;;;;;17.13;11.80;;;;;;;4.50;80.97;100375.91;4977839;28;20778;-82
2021/11/25 08:14:52;;;;;;;19.00;12.55;;;;;;;4.53;81.32;100375.06;4966639;28;20049;-82
2021/11/25 08:17:19;;;;;;;18.83;11.73;;;;;;;4.54;80.98;100377.69;4968713;28;20133;-82
2021/11/25 08:19:45;;;;;;;21.95;12.65;;;;;;;4.62;80.21;100377.78;4964654;28;20090;-81
2021/11/25 08:22:14;;;;;;;17.08;12.20;;;;;;;4.67;80.04;100364.84;4953439;28;20140;-86
2021/11/25 08:24:40;;;;;;;23.13;12.65;;;;;;;4.66;78.47;100363.13;4980326;28;20070;-87
2021/11/25 08:27:07;;;;;;;19.60;11.57;;;;;;;4.63;78.69;100374.34;4966096;28;20169;-85
2021/11/25 08:29:34;;;;;;;15.63;11.38;;;;;;;4.49;79.41;100368.97;4970383;28;20046;-82
2021/11/25 08:32:00;;;;;;;18.30;12.27;;;;;;;4.43;79.93;100374.09;4949064;28;20189;-82
2021/11/25 08:34:27;;;;;;;18.90;12.00;;;;;;;4.33;80.05;100369.66;4968807;28;20057;-82
2021/11/25 08:36:53;;;;;;;17.73;12.38;;;;;;;4.22;80.54;100364.34;4965453;28;21269;-86
2021/11/25 08:39:20;;;;;;;20.42;13.48;;;;;;;4.13;81.61;100358.22;4957042;28;20042;-81
2021/11/25 08:41:47;;;;;;;24.05;14.52;;;;;;;4.07;82.06;100357.25;4967919;28;20046;-85
2021/11/25 08:44:13;;;;;;;21.40;13.25;;;;;;;4.02;82.33;100346.81;4963594;28;20053;-81
2021/11/25 08:46:40;;;;;;;20.02;12.68;;;;;;;4.04;82.71;100360.69;4968339;28;20509;-81
2021/11/25 08:49:07;;;;;;;18.08;11.70;;;;;;;4.11;82.47;100357.31;4964758;28;20050;-81
2021/11/25 08:51:33;;;;;;;19.30;11.98;;;;;;;4.17;82.17;100361.69;4965143;28;20101;-86
2021/11/25 08:54:01;;;;;;;20.08;12.48;;;;;;;4.27;82.20;100360.94;4966554;28;20046;-80
2021/11/25 08:56:29;;;;;;;19.02;10.93;;;;;;;4.29;81.61;100366.16;4962662;28;20126;-82
2021/11/25 08:58:57;;;;;;;20.50;11.98;;;;;;;4.32;81.32;100370.53;4968715;28;20100;-79
2021/11/25 09:01:25;;;;;;;20.17;12.55;;;;;;;4.26;81.52;100364.41;4964149;28;21183;-83
2021/11/25 09:03:52;;;;;;;18.85;12.63;;;;;;;4.23;82.08;100361.75;4970695;28;20754;-82
2021/11/25 09:06:20;;;;;;;19.50;11.55;;;;;;;4.21;81.83;100360.00;4970879;28;20049;-80
2021/11/25 09:08:46;;;;;;;16.73;11.45;;;;;;;4.22;81.95;100364.34;4954321;28;20464;-81
2021/11/25 09:11:15;;;;;;;15.38;11.32;;;;;;;4.20;81.40;100372.09;4970083;28;20057;-86
2021/11/25 09:13:42;;;;;;;15.70;10.50;;;;;;;4.19;80.64;100369.50;4966432;28;20050;-81
2021/11/25 09:16:08;;;;;;;16.15;10.85;;;;;;;4.17;81.27;100366.88;4968396;28;20444;-82
2021/11/25 09:18:37;;;;;;;17.98;11.27;;;;;;;4.18;81.37;100360.84;4973120;28;20054;-83
2021/11/25 09:21:05;;;;;;;17.15;12.05;;;;;;;4.20;81.49;100353.06;4963247;28;20505;-85
2021/11/25 09:23:32;;;;;;;16.98;11.38;;;;;;;4.22;80.67;100351.38;4986286;28;20050;-81
2021/11/25 09:25:58;;;;;;;18.73;10.85;;;;;;;4.26;80.76;100353.16;4966742;28;20130;-83
2021/11/25 09:28:27;;;;;;;18.27;11.95;;;;;;;4.41;81.16;100348.16;4966837;28;20051;-78
2021/11/25 09:30:54;;;;;;;17.42;11.95;;;;;;;4.67;79.59;100346.69;4952746;28;20878;-87
2021/11/25 09:33:22;;;;;;;18.20;10.82;;;;;;;4.95;76.95;100353.03;4967076;28;20150;-84
2021/11/25 09:35:49;;;;;;;14.38;10.55;;;;;;;5.13;76.08;100348.00;4969522;28;20459;-84
2021/11/25 09:38:17;;;;;;;15.50;10.02;;;;;;;5.34;75.77;100348.16;4970758;28;20053;-82
2021/11/25 09:40:46;;;;;;;15.27;10.40;;;;;;;5.54;73.86;100346.59;4970094;28;20116;-82
2021/11/25 09:43:20;;;;;;;13.98;9.65;;;;;;;5.66;72.64;100345.78;4970651;28;20034;-79
2021/11/25 09:45:50;;;;;;;15.48;10.68;;;;;;;5.66;72.08;100350.09;4965865;28;20047;-83
2021/11/25 09:48:19;;;;;;;17.70;10.50;;;;;;;5.67;72.77;100357.03;4970127;28;20506;-79
2021/11/25 09:50:49;;;;;;;14.40;9.40;;;;;;;5.74;72.71;100364.88;4965260;28;20059;-85
2021/11/25 09:53:20;;;;;;;16.77;11.30;;;;;;;5.82;72.43;100357.13;4972414;28;20137;-85
2021/11/25 09:55:50;;;;;;;15.43;10.25;;;;;;;5.89;72.04;100358.03;4952246;28;20062;-78
2021/11/25 09:58:25;;;;;;;12.93;9.77;;;;;;;5.84;71.33;100350.22;4952198;28;20046;-82
2021/11/25 10:01:09;;;;;;;14.07;10.68;;;;;;;5.72;71.60;100347.53;4953764;28;20058;-84
2021/11/25 10:03:48;;;;;;;11.38;8.38;;;;;;;5.66;71.37;100348.38;4952734;28;20050;-86
2021/11/25 10:06:29;;;;;;;12.68;9.35;;;;;;;5.59;71.54;100344.00;4959216;28;20054;-79
2021/11/25 10:08:57;;;;;;;17.13;9.90;;;;;;;5.58;71.58;100334.47;4973400;28;20043;-84
2021/11/25 10:11:37;;;;;;;11.35;8.75;;;;;;;5.62;70.97;100333.66;4969633;28;20046;-84
2021/11/25 10:14:12;;;;;;;15.73;11.05;;;;;;;5.51;71.37;100338.75;4978904;28;20046;-81
2021/11/25 10:16:45;;;;;;;14.88;9.98;;;;;;;5.54;71.79;100324.91;4964591;28;20057;-84
2021/11/25 10:19:19;;;;;;;16.08;10.55;;;;;;;5.66;71.02;100332.81;4972024;28;20478;-81
2021/11/25 10:21:53;;;;;;;12.50;9.32;;;;;;;5.69;70.82;100331.97;4965183;28;20073;-78
2021/11/25 10:24:36;;;;;;;19.83;8.88;;;;;;;5.75;70.88;100337.16;4968684;28;20081;-81
2021/11/25 10:27:26;;;;;;;11.73;8.77;;;;;;;5.75;70.44;100327.66;4954699;28;20137;-84
2021/11/25 10:30:16;;;;;;;14.73;9.25;;;;;;;5.68;70.43;100330.22;4968369;28;20133;-82
2021/11/25 10:32:57;;;;;;;12.25;8.63;;;;;;;5.62;70.51;100310.28;4951764;28;20960;-84
2021/11/25 10:35:26;;;;;;;12.43;9.73;;;;;;;5.59;70.81;100305.94;4965392;28;20576;-85
2021/11/25 10:38:09;;;;;;;13.38;9.80;;;;;;;5.64;70.80;100305.94;4951060;28;20589;-85
2021/11/25 10:40:37;;;;;;;12.57;9.97;;;;;;;5.73;70.85;100305.13;4961204;28;20053;-84
2021/11/25 10:43:21;;;;;;;15.10;10.90;;;;;;;5.86;70.81;100304.31;4950693;28;20402;-84
2021/11/25 10:45:53;;;;;;;14.98;9.27;;;;;;;5.99;70.06;100299.25;4963560;28;20050;-87
2021/11/25 10:48:35;;;;;;;16.40;10.55;;;;;;;6.10;69.99;100311.41;4970278;28;20042;-89
2021/11/25 10:51:32;;;;;;;12.68;9.75;;;;;;;6.17;69.65;100316.63;4968535;28;20123;-82
2021/11/25 10:54:20;;;;;;;13.63;9.95;;;;;;;6.15;69.42;100308.81;4961907;28;20398;-79
2021/11/25 10:56:52;;;;;;;14.00;9.73;;;;;;;6.18;69.09;100301.03;4968597;28;20437;-80
2021/11/25 10:59:22;;;;;;;14.70;10.43;;;;;;;6.18;70.03;100305.34;4945604;28;20050;-83
2021/11/25 11:01:52;;;;;;;17.75;11.00;;;;;;;6.21;69.45;100297.59;4957044;28;21327;-81
2021/11/25 11:04:22;;;;;;;12.88;9.82;;;;;;;6.21;69.80;100295.84;4965742;28;20046;-86
2021/11/25 11:06:48;;;;;;;12.88;10.02;;;;;;;6.24;69.22;100302.78;4964161;28;20116;-85
2021/11/25 11:09:39;;;;;;;12.82;10.07;;;;;;;6.18;69.67;100308.84;4947467;28;20997;-82
2021/11/25 11:12:35;;;;;;;12.13;10.07;;;;;;;6.11;70.40;100307.06;4939651;28;20053;-83
2021/11/25 11:15:26;;;;;;;13.85;10.50;;;;;;;6.06;70.42;100301.88;4950910;28;20625;-88
2021/11/25 11:20:51;;;;;;;12.40;10.02;;;;;;;5.88;70.75;100279.25;4987467;28;20172;-84
2021/11/25 11:23:21;;;;;;;12.18;10.05;;;;;;;5.88;71.09;100283.53;4966241;28;20507;-84
2021/11/25 11:25:50;;;;;;;19.05;12.07;;;;;;;5.89;71.23;100277.50;5000052;28;20049;-86
2021/11/25 11:28:18;;;;;;;14.52;10.90;;;;;;;5.93;71.38;100274.94;4967492;28;20050;-80
2021/11/25 11:30:46;;;;;;;15.13;10.85;;;;;;;5.94;71.43;100271.47;4963899;28;20100;-81
2021/11/25 11:33:16;;;;;;;16.35;11.48;;;;;;;6.03;70.77;100275.84;4970785;28;20156;-79
2021/11/25 11:35:43;;;;;;;12.65;10.63;;;;;;;5.99;70.37;100279.31;4977728;28;20444;-81
2021/11/25 11:38:14;;;;;;;14.77;11.95;;;;;;;5.88;70.72;100281.84;4978447;28;20485;-86
2021/11/25 11:40:45;;;;;;;15.52;10.85;;;;;;;5.80;70.74;100279.19;4978162;28;20038;-84
2021/11/25 11:43:14;;;;;;;13.25;10.82;;;;;;;5.73;70.94;100279.16;4975480;28;20055;-81
2021/11/25 11:45:42;;;;;;;12.50;10.38;;;;;;;5.60;71.54;100276.50;4976853;28;20041;-85
2021/11/25 11:48:16;;;;;;;12.02;10.10;;;;;;;5.57;71.39;100268.69;4994290;28;20125;-85